Time;durP1;ratioP1;P1;durP2;ratioP2;P2;SDS_P1;SDS_P2;PMS_P1;PMS_P2;Temp;Humidity;BMP_temperature;BMP_pressure;BME280_temperature;BME280_humidity;BME280_pressure;Samples;Min_cycle;Max_cycle;Signal;HPM_P1;HPM_P2
2023/12/28 00:00:04;;;;;;;1.10;0.70;;;13.60;99.90;;;13.75;52.22;100730.03;6025727;22;97924;-40
2023/12/28 00:02:29;;;;;;;3.63;1.40;;;13.60;99.90;;;13.75;53.35;100735.34;6117280;22;97782;-39
2023/12/28 00:04:55;;;;;;;2.27;1.00;;;13.60;99.90;;;13.69;54.65;100751.53;6045071;22;103259;-43
2023/12/28 00:07:21;;;;;;;2.37;1.03;;;13.60;99.90;;;13.74;54.24;100746.84;6061814;22;126173;-36
2023/12/28 00:09:47;;;;;;;1.43;0.70;;;13.60;99.90;;;13.78;55.64;100753.75;6143822;22;97556;-44
2023/12/28 00:12:13;;;;;;;1.70;1.10;;;13.60;99.90;;;13.80;56.92;100754.53;6108815;22;97902;-42
2023/12/28 00:14:39;;;;;;;2.57;1.23;;;13.60;99.90;;;13.78;55.98;100759.06;6126303;22;121544;-38
2023/12/28 00:17:04;;;;;;;1.03;0.67;;;13.60;99.90;;;13.73;54.75;100769.00;6044807;22;97329;-40
2023/12/28 00:19:37;;;;;;;1.17;0.70;;;13.60;99.90;;;13.75;55.39;100772.47;6027659;22;98490;-42
2023/12/28 00:22:03;;;;;;;1.17;0.80;;;13.60;99.90;;;13.86;56.90;100770.13;6009431;22;97170;-40
2023/12/28 00:24:29;;;;;;;1.20;0.97;;;13.60;99.90;;;13.84;56.14;100776.44;6052295;22;124356;-40
2023/12/28 00:26:55;;;;;;;2.50;0.90;;;13.70;99.90;;;13.88;56.58;100768.28;6117228;22;99625;-43
2023/12/28 00:29:23;;;;;;;1.93;0.70;;;13.60;99.90;;;13.93;57.09;100782.19;6063418;22;97544;-40
2023/12/28 00:31:49;;;;;;;1.57;0.93;;;13.60;99.90;;;13.88;56.27;100784.19;6081524;22;97439;-36
2023/12/28 00:34:15;;;;;;;4.00;0.90;;;13.60;99.90;;;13.84;56.92;100787.91;6088396;22;121413;-42
2023/12/28 00:36:41;;;;;;;1.47;0.97;;;13.50;99.90;;;13.80;55.88;100786.34;6021496;22;100537;-39
2023/12/28 00:39:06;;;;;;;1.80;0.80;;;13.60;99.90;;;13.76;55.67;100779.47;6094505;22;103383;-42
2023/12/28 00:41:32;;;;;;;1.77;0.73;;;13.60;99.90;;;13.68;55.96;100776.31;6023525;22;98214;-36
2023/12/28 00:44:05;;;;;;;1.77;0.87;;;13.60;99.90;;;13.76;56.70;100789.22;6019287;22;101135;-36
2023/12/28 00:46:31;;;;;;;2.73;0.73;;;13.60;99.90;;;13.78;56.10;100798.81;6045954;22;98167;-41
2023/12/28 00:48:57;;;;;;;1.67;0.93;;;13.70;99.90;;;13.84;56.86;100798.53;6085234;22;106886;-38
2023/12/28 00:51:23;;;;;;;2.40;0.90;;;13.70;99.90;;;13.69;56.94;100799.22;6097438;22;97859;-41
2023/12/28 00:53:49;;;;;;;0.90;0.73;;;13.70;99.90;;;13.81;57.52;100811.94;6089741;22;98900;-39
2023/12/28 00:56:14;;;;;;;0.93;0.70;;;13.70;99.90;;;13.85;57.71;100807.34;6083850;22;99409;-41
2023/12/28 00:58:43;;;;;;;2.73;0.87;;;13.70;99.90;;;13.77;57.02;100804.19;6080533;22;108177;-40
2023/12/28 01:01:09;;;;;;;1.63;0.90;;;13.70;99.90;;;13.79;56.75;100813.78;6032469;22;97138;-41
2023/12/28 01:03:38;;;;;;;1.27;0.70;;;13.70;99.90;;;13.75;57.31;100814.88;6090096;22;97483;-39
2023/12/28 01:06:07;;;;;;;1.03;0.60;;;13.60;99.90;;;13.68;57.12;100813.41;6060200;22;97690;-36
2023/12/28 01:08:35;;;;;;;1.63;0.97;;;13.60;99.90;;;13.66;57.93;100825.88;6143042;22;97476;-37
2023/12/28 01:11:04;;;;;;;0.97;0.63;;;13.60;99.90;;;13.61;56.85;100827.91;6017300;22;98328;-38
2023/12/28 01:13:30;;;;;;;1.00;0.77;;;13.60;99.90;;;13.57;57.17;100826.28;6088351;22;97930;-40
2023/12/28 01:15:56;;;;;;;0.60;0.53;;;13.60;99.90;;;13.66;58.72;100839.16;6074030;22;98817;-36
2023/12/28 01:18:22;;;;;;;3.60;1.07;;;13.60;99.90;;;13.63;57.89;100836.63;6083026;22;103242;-38
2023/12/28 01:20:48;;;;;;;1.17;0.60;;;13.60;99.90;;;13.66;57.68;100826.75;6003217;22;103826;-44
2023/12/28 01:23:13;;;;;;;0.83;0.60;;;13.60;99.90;;;13.67;57.52;100838.22;6046800;22;98459;-35
2023/12/28 01:25:42;;;;;;;3.30;0.90;;;13.60;99.90;;;13.73;56.80;100837.91;6102918;22;125943;-40
2023/12/28 01:28:07;;;;;;;1.77;0.70;;;13.70;99.90;;;13.72;56.95;100835.34;6091583;22;98054;-40
2023/12/28 01:30:34;;;;;;;1.37;0.87;;;13.60;99.90;;;13.66;56.82;100836.50;6118460;22;98295;-36
2023/12/28 01:32:59;;;;;;;1.23;0.83;;;13.70;99.90;;;13.64;56.90;100827.75;6091007;22;99263;-36
2023/12/28 01:35:25;;;;;;;1.60;0.70;;;13.60;99.90;;;13.58;57.18;100838.63;6031057;22;116775;-38
2023/12/28 01:37:51;;;;;;;0.93;0.70;;;13.60;99.90;;;13.70;56.55;100832.75;6129542;22;97426;-37
2023/12/28 01:40:17;;;;;;;0.53;0.50;;;13.70;99.90;;;13.69;57.46;100836.34;6075236;22;103682;-41
2023/12/28 01:42:43;;;;;;;1.07;0.73;;;13.70;99.90;;;13.66;57.71;100841.78;6114314;22;99989;-40
2023/12/28 01:45:08;;;;;;;3.33;0.60;;;13.60;99.90;;;13.71;58.25;100845.09;6119744;22;121831;-42
2023/12/28 01:47:35;;;;;;;1.47;0.67;;;13.70;99.90;;;13.78;58.42;100841.25;6133449;22;111316;-41
2023/12/28 01:50:02;;;;;;;0.90;0.60;;;13.70;99.90;;;13.79;57.76;100842.97;6051212;22;98383;-37
2023/12/28 01:52:28;;;;;;;1.10;0.70;;;13.70;99.90;;;13.78;58.02;100850.97;6134283;22;97964;-42
2023/12/28 01:54:55;;;;;;;4.03;0.90;;;13.70;99.90;;;13.71;57.51;100855.69;6118766;22;102214;-45
2023/12/28 01:57:24;;;;;;;0.77;0.50;;;13.70;99.90;;;13.64;56.93;100854.25;6096977;22;115300;-41
2023/12/28 01:59:51;;;;;;;0.97;0.60;;;13.70;99.90;;;13.71;57.34;100858.34;6088198;22;98952;-37
2023/12/28 02:02:17;;;;;;;0.90;0.63;;;13.70;99.90;;;13.69;57.23;100866.38;6068598;22;98323;-39
2023/12/28 02:04:43;;;;;;;1.90;0.57;;;13.70;99.90;;;13.65;57.28;100863.94;6074236;22;108227;-38
2023/12/28 02:07:10;;;;;;;1.63;0.87;;;13.60;99.90;;;13.63;57.39;100864.00;6083550;22;98527;-39
2023/12/28 02:09:36;;;;;;;1.87;0.77;;;13.60;99.90;;;13.63;57.35;100869.31;6064949;22;98083;-40
2023/12/28 02:12:03;;;;;;;2.97;0.77;;;13.60;99.90;;;13.67;57.65;100864.72;6083198;22;99404;-40
2023/12/28 02:14:29;;;;;;;1.03;0.83;;;13.70;99.90;;;13.67;57.44;100872.66;6022587;22;99052;-41
2023/12/28 02:17:05;;;;;;;0.90;0.60;;;13.70;99.90;;;13.68;57.58;100861.13;6039855;22;99643;-43
2023/12/28 02:19:43;;;;;;;3.80;0.93;;;13.60;99.90;;;13.70;57.95;100861.91;6082628;22;97215;-41
2023/12/28 02:22:09;;;;;;;1.57;0.60;;;13.70;99.90;;;13.68;57.67;100871.75;6105489;22;105705;-40
2023/12/28 02:25:11;;;;;;;2.33;0.80;;;13.60;99.90;;;13.71;57.73;100866.28;6041094;22;98252;-39
2023/12/28 02:27:48;;;;;;;1.60;0.50;;;13.70;99.90;;;13.74;57.37;100866.16;5996070;23;98151;-41
2023/12/28 02:30:23;;;;;;;0.93;0.70;;;13.70;99.90;;;13.87;58.19;100863.81;5968111;22;98000;-37
2023/12/28 02:33:13;;;;;;;0.83;0.50;;;13.70;99.90;;;13.79;58.45;100858.88;6097290;22;100092;-40
2023/12/28 02:36:09;;;;;;;1.20;0.70;;;13.70;99.90;;;13.80;58.51;100871.19;6010087;22;106528;-39
2023/12/28 02:38:46;;;;;;;3.67;0.80;;;13.70;99.90;;;13.79;58.05;100869.47;6069661;22;98644;-40
2023/12/28 02:41:12;;;;;;;0.73;0.63;;;13.60;99.90;;;13.73;58.04;100872.38;6092131;22;107641;-39
2023/12/28 02:43:38;;;;;;;1.10;0.87;;;13.60;99.90;;;13.83;58.31;100860.44;6108443;22;102883;-36
2023/12/28 02:46:04;;;;;;;1.40;0.80;;;13.60;99.90;;;13.71;58.12;100871.59;6099678;22;124746;-45
2023/12/28 02:48:30;;;;;;;1.10;0.70;;;13.60;99.90;;;13.78;58.22;100873.06;6032582;22;98422;-44
2023/12/28 02:50:55;;;;;;;2.00;0.47;;;13.60;99.90;;;13.83;58.22;100870.19;6005543;22;97706;-39
2023/12/28 02:53:26;;;;;;;1.20;0.67;;;13.70;99.90;;;13.79;58.10;100864.16;6014287;22;121769;-44
2023/12/28 02:55:52;;;;;;;0.63;0.37;;;13.70;99.90;;;13.81;57.95;100854.34;6020728;22;105095;-41
2023/12/28 02:58:19;;;;;;;0.83;0.60;;;13.70;99.90;;;13.71;57.96;100866.28;6038459;22;112561;-38
2023/12/28 03:00:48;;;;;;;0.80;0.57;;;13.70;99.90;;;13.78;57.50;100856.28;6006403;22;97688;-40
2023/12/28 03:03:20;;;;;;;0.60;0.40;;;13.70;99.90;;;13.71;57.52;100853.03;6024035;22;99622;-39
2023/12/28 03:05:46;;;;;;;0.60;0.40;;;13.70;99.90;;;13.64;57.58;100856.91;6102040;22;98936;-36
2023/12/28 03:08:11;;;;;;;3.30;0.60;;;13.60;99.90;;;13.69;58.11;100857.56;6106164;22;97447;-42
2023/12/28 03:10:40;;;;;;;0.60;0.30;;;13.60;99.90;;;13.60;57.99;100864.16;6024283;22;98491;-42
2023/12/28 03:13:06;;;;;;;1.10;0.50;;;13.60;99.90;;;13.52;58.02;100839.75;5987389;22;100850;-43
2023/12/28 03:15:32;;;;;;;0.60;0.60;;;13.60;99.90;;;13.57;58.85;100829.81;6047672;22;99730;-40
2023/12/28 03:17:58;;;;;;;1.00;0.60;;;13.60;99.90;;;13.52;58.15;100828.31;6048802;22;98999;-41
2023/12/28 03:20:27;;;;;;;0.87;0.60;;;13.60;99.90;;;13.55;58.51;100833.47;6007443;22;97920;-40
2023/12/28 03:22:55;;;;;;;1.30;0.53;;;13.60;99.90;;;13.72;58.58;100825.59;6019852;22;98606;-39
2023/12/28 03:25:21;;;;;;;0.73;0.50;;;13.60;99.90;;;13.70;58.39;100846.03;6015289;22;99842;-40
2023/12/28 03:27:47;;;;;;;0.87;0.57;;;13.70;99.90;;;13.80;58.08;100833.22;6012978;22;98525;-39
2023/12/28 03:30:18;;;;;;;1.37;0.60;;;13.70;99.90;;;13.69;57.84;100837.22;6037761;22;111205;-41
2023/12/28 03:32:44;;;;;;;0.87;0.67;;;13.70;99.90;;;13.76;58.01;100848.41;5970370;22;105704;-42
2023/12/28 03:35:09;;;;;;;1.13;0.83;;;13.70;99.90;;;13.69;58.33;100857.56;6010514;22;125752;-40
2023/12/28 03:37:35;;;;;;;2.40;0.50;;;13.70;99.90;;;13.78;58.77;100851.84;5989215;22;98534;-36
2023/12/28 03:40:01;;;;;;;2.53;0.53;;;13.70;99.90;;;13.71;58.00;100850.38;5992739;22;97778;-38
2023/12/28 03:42:27;;;;;;;0.73;0.67;;;13.70;99.90;;;13.77;58.39;100847.47;6020064;22;126612;-43
2023/12/28 03:44:53;;;;;;;1.00;0.53;;;13.70;99.90;;;13.85;58.50;100847.97;6007059;22;99122;-42
2023/12/28 03:47:19;;;;;;;2.03;0.77;;;13.70;99.90;;;13.78;57.97;100851.84;6064453;22;98633;-42
2023/12/28 03:49:44;;;;;;;1.03;0.67;;;13.70;99.90;;;13.78;58.38;100851.84;6063893;22;101387;-38
2023/12/28 03:52:10;;;;;;;1.80;0.90;;;13.70;99.90;;;13.79;58.59;100842.97;6026255;22;99647;-46
2023/12/28 03:54:38;;;;;;;0.97;0.63;;;13.70;99.90;;;13.76;58.16;100835.16;5913913;22;100224;-41
2023/12/28 03:57:05;;;;;;;2.17;0.70;;;13.70;99.90;;;13.85;57.79;100841.81;6049543;22;100855;-41
2023/12/28 03:59:36;;;;;;;1.07;0.60;;;13.70;99.90;;;13.88;58.36;100846.97;6026511;22;107464;-39
2023/12/28 04:02:02;;;;;;;1.83;0.87;;;13.80;99.90;;;13.82;57.06;100842.81;6097032;22;100090;-40
2023/12/28 04:04:30;;;;;;;1.83;0.73;;;13.80;99.90;;;13.81;57.34;100851.69;6107160;22;98475;-38
2023/12/28 04:06:55;;;;;;;0.80;0.47;;;13.70;99.90;;;13.85;57.98;100853.25;6143486;22;97260;-37
2023/12/28 04:09:21;;;;;;;2.17;0.90;;;13.70;99.90;;;13.84;57.93;100851.56;6096372;22;109574;-39
2023/12/28 04:11:47;;;;;;;0.83;0.80;;;13.70;99.90;;;13.86;57.87;100838.22;6071743;22;123617;-42
2023/12/28 04:14:13;;;;;;;4.67;1.17;;;13.70;99.90;;;13.81;58.02;100841.09;6115642;22;126938;-43
2023/12/28 04:16:39;;;;;;;1.77;0.77;;;13.70;99.90;;;13.82;57.74;100836.66;6093339;22;102249;-42
2023/12/28 04:19:08;;;;;;;1.03;0.77;;;13.70;99.90;;;13.79;57.44;100837.66;6081312;22;111558;-35
2023/12/28 04:21:33;;;;;;;0.70;0.40;;;13.70;99.90;;;13.91;58.73;100831.78;6051972;22;99692;-42
2023/12/28 04:23:59;;;;;;;1.00;0.70;;;13.70;99.90;;;13.90;57.40;100835.38;6086154;22;121941;-38
2023/12/28 04:26:25;;;;;;;0.90;0.57;;;13.80;99.90;;;13.99;57.68;100837.56;6102182;22;108083;-36
2023/12/28 04:28:50;;;;;;;3.50;0.83;;;13.80;99.90;;;13.97;58.05;100831.50;6113281;22;111248;-36
2023/12/28 04:31:16;;;;;;;0.77;0.60;;;13.80;99.90;;;14.10;57.81;100831.78;6119399;22;99316;-40
2023/12/28 04:33:42;;;;;;;0.80;0.70;;;13.90;99.90;;;13.99;56.59;100840.22;6119267;22;124034;-40
2023/12/28 04:36:08;;;;;;;0.93;0.50;;;13.80;99.90;;;14.07;56.72;100837.22;6135121;22;97188;-36
2023/12/28 04:38:34;;;;;;;1.90;0.30;;;13.80;99.90;;;14.21;57.61;100831.28;6101118;22;110732;-39
2023/12/28 04:41:01;;;;;;;0.80;0.60;;;13.90;99.90;;;14.29;57.59;100831.75;6112390;22;99256;-43
2023/12/28 04:43:27;;;;;;;0.73;0.50;;;14.00;99.90;;;14.19;56.78;100835.81;6098110;22;99264;-42
2023/12/28 04:45:53;;;;;;;1.37;0.77;;;13.90;99.90;;;14.08;56.77;100819.53;6144392;22;97276;-40
2023/12/28 04:48:23;;;;;;;0.70;0.53;;;13.90;99.90;;;14.11;58.08;100832.63;6108262;22;97451;-40
2023/12/28 04:50:49;;;;;;;1.17;0.77;;;13.80;99.90;;;14.08;56.52;100838.09;6117897;22;105265;-38
2023/12/28 04:53:15;;;;;;;0.70;0.47;;;13.80;99.90;;;14.02;56.92;100849.81;6105068;22;97443;-39
2023/12/28 04:55:44;;;;;;;0.50;0.50;;;13.70;99.90;;;14.11;58.00;100849.41;6120786;22;97420;-37
2023/12/28 04:58:13;;;;;;;0.70;0.50;;;13.80;99.90;;;14.07;57.23;100854.94;6094908;22;110189;-42
2023/12/28 05:00:41;;;;;;;1.23;0.50;;;13.80;99.90;;;14.02;56.31;100848.97;6096753;22;99470;-39
2023/12/28 05:03:07;;;;;;;0.70;0.60;;;13.70;99.90;;;14.04;57.53;100849.78;6131131;22;98433;-41
2023/12/28 05:05:33;;;;;;;2.50;0.83;;;13.70;99.90;;;13.98;56.95;100849.13;6134288;22;97446;-36
2023/12/28 05:07:59;;;;;;;0.70;0.53;;;13.70;99.90;;;13.94;57.56;100858.16;6128002;22;97410;-39
2023/12/28 05:10:25;;;;;;;0.53;0.50;;;13.60;99.90;;;13.80;56.81;100860.59;6131646;22;98348;-40
2023/12/28 05:12:50;;;;;;;0.73;0.57;;;13.50;99.90;;;13.80;57.02;100860.59;6136613;22;99043;-42
2023/12/28 05:15:18;;;;;;;1.37;0.80;;;13.40;99.90;;;13.75;58.00;100862.59;6153858;22;111917;-41
2023/12/28 05:17:43;;;;;;;3.60;0.63;;;13.40;99.90;;;13.85;57.67;100868.31;6152224;22;97450;-41
2023/12/28 05:20:10;;;;;;;1.13;0.67;;;13.50;99.90;;;14.03;58.38;100861.28;6121335;22;103302;-39
2023/12/28 05:22:38;;;;;;;0.83;0.50;;;13.70;99.90;;;14.15;58.01;100868.69;6104455;22;99113;-38
2023/12/28 05:25:07;;;;;;;1.10;0.83;;;13.90;99.90;;;14.19;56.57;100872.94;6154131;22;106834;-41
2023/12/28 05:27:33;;;;;;;1.23;0.57;;;13.90;99.90;;;14.15;57.07;100881.94;6143739;22;97383;-38
2023/12/28 05:29:58;;;;;;;1.07;0.60;;;13.90;99.90;;;13.94;56.87;100878.50;6148896;22;116308;-40
2023/12/28 05:32:24;;;;;;;1.10;0.63;;;13.70;99.90;;;13.98;57.29;100877.44;6132181;22;124206;-36
2023/12/28 05:34:50;;;;;;;1.07;0.53;;;13.60;99.90;;;13.97;57.64;100884.53;6145156;22;110756;-43
2023/12/28 05:37:16;;;;;;;1.83;0.80;;;13.60;99.90;;;13.99;57.73;100887.97;6121424;22;97283;-38
2023/12/28 05:39:44;;;;;;;1.37;0.70;;;13.70;99.90;;;13.79;55.94;100888.03;6127421;22;126789;-42
2023/12/28 05:42:10;;;;;;;1.07;0.73;;;13.50;99.90;;;13.73;56.98;100885.63;6105798;22;102558;-41
2023/12/28 05:44:36;;;;;;;1.97;0.80;;;13.40;99.90;;;13.53;56.69;100896.28;6121968;22;112143;-37
2023/12/28 05:47:03;;;;;;;1.83;0.70;;;13.30;99.90;;;13.51;57.70;100892.84;6127501;22;97186;-38
2023/12/28 05:49:30;;;;;;;3.20;0.80;;;13.20;99.90;;;13.52;59.10;100891.91;6156512;22;104286;-39
2023/12/28 05:51:58;;;;;;;1.27;0.60;;;13.20;99.90;;;13.49;57.53;100897.34;6128531;22;100801;-36
2023/12/28 05:54:26;;;;;;;1.23;0.90;;;13.20;99.90;;;13.43;58.19;100898.47;6082340;22;105008;-41
2023/12/28 05:56:52;;;;;;;1.53;1.00;;;13.20;99.90;;;13.32;57.85;100911.34;6130095;22;97025;-37
2023/12/28 05:59:21;;;;;;;0.77;0.60;;;13.10;99.90;;;13.42;58.03;100914.44;6148119;22;112947;-36
2023/12/28 06:01:47;;;;;;;2.40;0.90;;;13.10;99.90;;;13.27;58.17;100923.91;6112488;22;97055;-39
2023/12/28 06:04:13;;;;;;;1.20;0.80;;;13.10;99.90;;;13.29;57.83;100930.84;6120580;22;97120;-38
2023/12/28 06:06:39;;;;;;;2.00;1.00;;;13.00;99.90;;;13.36;58.67;100932.31;6134421;22;112125;-37
2023/12/28 06:09:05;;;;;;;1.17;0.60;;;13.10;99.90;;;13.45;59.80;100924.88;6148137;22;99716;-40
2023/12/28 06:11:30;;;;;;;1.30;0.60;;;13.10;99.90;;;13.43;57.75;100924.97;6127930;22;97421;-40
2023/12/28 06:13:56;;;;;;;2.73;0.90;;;13.20;99.90;;;13.47;59.74;100921.28;6129702;22;102995;-41
2023/12/28 06:16:23;;;;;;;2.80;0.97;;;13.20;99.90;;;13.46;59.19;100921.34;6122095;22;97505;-39
2023/12/28 06:18:48;;;;;;;2.27;1.00;;;13.30;99.90;;;13.33;57.88;100924.50;6047395;22;99505;-36
2023/12/28 06:21:14;;;;;;;2.73;1.07;;;13.20;99.90;;;13.30;57.18;100927.28;6124740;22;97965;-37
2023/12/28 06:23:40;;;;;;;1.70;0.60;;;13.20;99.90;;;13.37;57.55;100931.38;6117676;22;97682;-43
2023/12/28 06:26:06;;;;;;;3.87;0.80;;;13.20;99.90;;;13.33;57.44;100929.81;6116653;22;101508;-39
2023/12/28 06:28:35;;;;;;;1.53;1.10;;;13.20;99.90;;;13.35;58.41;100933.25;6149857;22;97869;-39
2023/12/28 06:31:01;;;;;;;2.47;0.70;;;13.20;99.90;;;13.42;59.15;100922.38;6150141;22;99764;-40
2023/12/28 06:33:35;;;;;;;1.87;0.83;;;13.20;99.90;;;13.38;56.84;100926.94;6132693;22;97293;-45
2023/12/28 06:36:06;;;;;;;2.63;1.20;;;13.20;99.90;;;13.35;56.57;100933.25;6094337;22;97690;-40
2023/12/28 06:38:33;;;;;;;1.37;0.90;;;13.30;99.90;;;13.38;57.89;100933.13;6146942;22;97899;-41
2023/12/28 06:40:58;;;;;;;0.77;0.60;;;13.30;99.90;;;13.45;56.25;100932.84;6141467;22;101317;-42
2023/12/28 06:43:24;;;;;;;3.40;0.87;;;13.30;99.90;;;13.49;56.79;100923.84;6133673;22;111760;-40
2023/12/28 06:45:51;;;;;;;1.03;0.80;;;13.40;99.90;;;13.44;56.00;100925.81;6066138;22;97287;-38
2023/12/28 06:48:17;;;;;;;1.33;0.77;;;13.40;99.90;;;13.37;55.65;100926.09;6093964;22;98505;-39
2023/12/28 06:50:43;;;;;;;1.83;0.60;;;13.30;99.90;;;13.33;55.66;100926.31;6151403;22;126341;-39
2023/12/28 06:53:14;;;;;;;2.67;0.90;;;13.30;99.90;;;13.40;55.63;100925.97;6111746;22;112707;-38
2023/12/28 06:55:40;;;;;;;3.70;0.80;;;13.30;99.90;;;13.32;55.88;100919.28;6046010;22;97869;-39
2023/12/28 06:58:07;;;;;;;2.50;0.90;;;13.30;99.90;;;13.26;55.88;100923.03;6118040;22;113186;-36
2023/12/28 07:00:41;;;;;;;1.47;0.77;;;13.30;99.90;;;13.27;55.57;100927.41;6147785;22;98628;-39
2023/12/28 07:03:07;;;;;;;0.80;0.47;;;13.30;99.90;;;13.46;58.13;100935.44;6127543;22;97508;-37
2023/12/28 07:05:33;;;;;;;2.20;0.70;;;13.40;99.90;;;13.40;55.62;100927.75;6093596;22;97166;-37
2023/12/28 07:08:02;;;;;;;1.60;0.80;;;13.40;99.90;;;13.51;58.18;100924.63;6080422;22;119241;-38
2023/12/28 07:10:28;;;;;;;2.00;0.90;;;13.40;99.90;;;13.55;55.99;100927.06;6141721;22;98648;-42
2023/12/28 07:12:53;;;;;;;2.10;1.30;;;13.40;99.90;;;13.45;56.10;100938.13;6131484;22;99734;-37
2023/12/28 07:15:19;;;;;;;0.93;0.63;;;13.40;99.90;;;13.51;56.26;100933.44;6060902;22;119347;-40
2023/12/28 07:17:45;;;;;;;2.33;1.00;;;13.40;99.90;;;13.55;55.92;100928.88;6116780;22;99484;-41
2023/12/28 07:20:11;;;;;;;1.10;0.73;;;13.50;99.90;;;13.69;58.56;100934.44;6133367;22;121108;-36
2023/12/28 07:22:38;;;;;;;2.33;1.00;;;13.50;99.90;;;13.55;55.94;100939.47;6126044;22;97418;-39
2023/12/28 07:25:06;;;;;;;1.70;0.97;;;13.40;99.90;;;13.63;58.01;100942.66;6140462;22;104220;-35
2023/12/28 07:27:36;;;;;;;1.07;0.90;;;13.40;99.90;;;13.65;56.58;100935.50;6117136;22;98084;-38
2023/12/28 07:30:02;;;;;;;1.83;0.87;;;13.50;99.90;;;13.75;56.94;100936.81;6139069;22;99039;-39
2023/12/28 07:32:34;;;;;;;2.77;1.33;;;13.50;99.90;;;13.69;57.01;100937.09;6116888;22;99320;-42
2023/12/28 07:35:00;;;;;;;3.53;1.20;;;13.50;99.90;;;13.62;56.24;100947.09;6003080;22;97469;-38
2023/12/28 07:37:26;;;;;;;1.37;0.87;;;13.40;99.90;;;13.67;56.61;100950.41;6134823;22;98706;-40
2023/12/28 07:39:53;;;;;;;2.83;0.83;;;13.50;99.90;;;13.70;58.85;100944.09;6136309;22;99194;-36
2023/12/28 07:42:19;;;;;;;2.03;1.10;;;13.40;99.90;;;13.78;57.78;100962.34;6117285;22;97849;-36
2023/12/28 07:44:45;;;;;;;2.90;1.20;;;13.60;99.90;;;13.65;56.51;100962.00;6118311;22;100722;-37
2023/12/28 07:47:12;;;;;;;1.63;1.03;;;13.50;99.90;;;13.55;56.79;100965.97;6142144;22;99258;-39
2023/12/28 07:49:38;;;;;;;1.13;0.80;;;13.40;99.90;;;13.73;58.39;100965.16;6114921;22;97509;-37
2023/12/28 07:52:07;;;;;;;3.23;0.73;;;13.50;99.90;;;13.58;55.84;100960.53;6144697;22;110753;-42
2023/12/28 07:54:32;;;;;;;1.13;0.77;;;13.40;99.90;;;13.74;57.76;100971.34;6090813;22;109654;-37
2023/12/28 07:56:59;;;;;;;2.23;1.00;;;13.50;99.90;;;13.68;56.89;100977.78;6082210;22;114385;-39
2023/12/28 07:59:25;;;;;;;0.97;0.80;;;13.40;99.90;;;13.67;56.43;100981.34;6115867;22;99433;-38
2023/12/28 08:01:51;;;;;;;3.07;0.87;;;13.40;99.90;;;13.76;58.75;100975.66;6092446;22;116297;-40
2023/12/28 08:04:16;;;;;;;1.57;0.90;;;13.40;99.90;;;13.70;56.43;100981.22;6129588;22;108903;-41
2023/12/28 08:06:44;;;;;;;1.70;0.90;;;13.40;99.90;;;13.66;56.21;100990.25;6141458;22;121968;-38
2023/12/28 08:09:13;;;;;;;1.73;0.77;;;13.40;99.90;;;13.69;56.77;100985.66;6141149;22;107957;-37
2023/12/28 08:11:38;;;;;;;2.13;1.00;;;13.40;99.90;;;13.56;55.62;100988.91;6088278;22;97530;-40
2023/12/28 08:14:05;;;;;;;1.47;0.80;;;13.30;99.90;;;13.59;55.85;100994.06;6082478;22;113644;-41
2023/12/28 08:16:31;;;;;;;1.23;0.63;;;13.40;99.90;;;13.42;56.13;101002.72;6124856;22;99870;-41
2023/12/28 08:18:57;;;;;;;2.30;1.03;;;13.30;99.90;;;13.31;57.10;101005.84;6120530;22;99827;-38
2023/12/28 08:21:23;;;;;;;3.77;1.50;;;13.10;99.90;;;13.29;56.96;101005.03;6053557;22;104818;-44
2023/12/28 08:23:49;;;;;;;4.10;1.23;;;13.10;99.90;;;13.22;56.37;101000.91;6036789;22;97901;-36
2023/12/28 08:26:14;;;;;;;2.43;1.37;;;13.10;99.90;;;13.11;56.79;100998.66;6092718;22;98997;-37
2023/12/28 08:28:43;;;;;;;3.53;1.13;;;13.00;99.90;;;13.16;57.68;101001.13;6007992;22;103173;-38
2023/12/28 08:31:09;;;;;;;4.77;1.10;;;13.00;99.90;;;13.18;57.22;100999.31;6053462;22;97425;-45
2023/12/28 08:33:39;;;;;;;1.73;1.27;;;13.00;99.90;;;12.96;59.17;101001.06;6019801;22;98495;-41
2023/12/28 08:36:08;;;;;;;0.90;0.80;;;12.70;99.90;;;13.35;60.49;100996.84;5934412;22;99418;-46
2023/12/28 08:38:34;;;;;;;1.10;0.80;;;13.10;99.90;;;13.66;59.91;101000.84;5942319;22;98884;-44
2023/12/28 08:41:00;;;;;;;1.43;0.73;;;13.50;99.90;;;13.93;59.05;100994.34;6065854;22;105053;-46
2023/12/28 08:43:25;;;;;;;2.03;1.10;;;13.80;99.90;;;14.15;58.16;100988.91;6064166;22;98116;-41
2023/12/28 08:45:54;;;;;;;1.73;0.70;;;14.10;99.90;;;14.34;56.78;100994.28;6075945;22;101029;-46
2023/12/28 08:48:20;;;;;;;0.77;0.73;;;14.20;99.90;;;14.45;56.93;100996.44;6065995;22;101574;-41
2023/12/28 08:50:46;;;;;;;7.43;1.40;;;14.30;99.90;;;14.58;55.46;100998.47;5958285;22;97437;-41
2023/12/28 08:53:12;;;;;;;1.60;0.70;;;14.50;99.90;;;14.61;56.54;101004.56;6055723;22;110028;-45
2023/12/28 08:55:37;;;;;;;3.80;1.00;;;14.50;99.90;;;14.63;56.06;101016.00;6075574;22;110611;-48
2023/12/28 08:58:03;;;;;;;5.17;0.87;;;14.50;99.90;;;14.67;56.09;101006.94;6020284;22;99205;-46
2023/12/28 09:00:29;;;;;;;2.33;0.83;;;14.50;99.90;;;14.66;54.43;101013.19;6111979;22;98039;-45
2023/12/28 09:02:55;;;;;;;1.60;0.90;;;14.50;99.90;;;14.44;51.76;101019.47;6104885;22;106823;-44
2023/12/28 09:05:21;;;;;;;4.27;0.83;;;14.40;99.90;;;14.46;52.58;101019.41;6102102;22;98058;-42
2023/12/28 09:07:47;;;;;;;1.43;0.77;;;14.40;99.90;;;14.32;52.52;101014.72;6044028;22;110149;-42
2023/12/28 09:10:13;;;;;;;1.03;0.80;;;14.40;99.90;;;14.27;52.67;101009.59;6037210;22;106777;-44
2023/12/28 09:12:42;;;;;;;2.20;0.93;;;14.30;99.90;;;14.21;53.80;101009.88;5962484;22;98232;-44
2023/12/28 09:15:08;;;;;;;2.77;0.90;;;14.20;99.90;;;14.04;52.83;101000.97;5986386;22;109148;-40
2023/12/28 09:17:35;;;;;;;2.63;0.80;;;14.10;99.90;;;14.00;53.09;101001.06;5989728;22;98599;-46
2023/12/28 09:20:06;;;;;;;1.53;0.70;;;14.00;99.90;;;13.85;53.36;101012.38;6063650;22;96995;-40
2023/12/28 09:22:31;;;;;;;1.43;0.67;;;13.90;99.90;;;13.87;53.77;101014.94;6090574;22;98526;-44
2023/12/28 09:25:03;;;;;;;2.93;0.87;;;13.80;99.90;;;13.93;54.18;101010.25;6078756;22;121867;-47
2023/12/28 09:27:29;;;;;;;1.00;0.77;;;13.90;99.90;;;14.03;56.40;101010.69;6087763;22;98910;-39
2023/12/28 09:29:57;;;;;;;1.93;0.90;;;14.00;99.90;;;14.00;53.21;101010.81;6054723;22;99691;-45
2023/12/28 09:32:23;;;;;;;0.87;0.67;;;14.00;99.90;;;13.99;53.21;101025.88;6078814;22;98222;-46
2023/12/28 09:34:49;;;;;;;1.70;0.83;;;14.00;99.90;;;14.03;56.25;101010.69;6075765;22;114758;-39
2023/12/28 09:37:15;;;;;;;1.37;0.50;;;14.00;99.90;;;14.05;54.99;101027.44;6093958;22;99233;-42
2023/12/28 09:39:42;;;;;;;3.70;0.60;;;14.10;99.90;;;14.00;54.22;101017.00;6101534;22;119273;-43
2023/12/28 09:42:28;;;;;;;4.10;1.07;;;14.00;99.90;;;14.08;54.60;101029.06;6020834;22;107030;-41
2023/12/28 09:44:57;;;;;;;1.90;0.77;;;14.10;99.90;;;14.13;55.98;101021.75;6043610;22;103268;-45
2023/12/28 09:47:22;;;;;;;2.10;0.70;;;14.10;99.90;;;14.18;53.81;101025.94;6033123;22;117671;-43
2023/12/28 09:49:48;;;;;;;3.23;1.00;;;14.20;99.90;;;14.18;52.91;101023.31;6046105;22;97584;-42
2023/12/28 09:52:14;;;;;;;1.13;0.50;;;14.30;99.90;;;14.28;54.74;101019.28;6006737;22;97492;-43
2023/12/28 09:54:40;;;;;;;0.87;0.67;;;14.30;99.90;;;14.33;55.92;101026.19;5935673;22;103007;-43
2023/12/28 09:57:06;;;;;;;0.97;0.60;;;14.30;99.90;;;14.23;52.49;101023.09;6060701;22;98720;-41
2023/12/28 09:59:34;;;;;;;1.90;0.70;;;14.40;99.90;;;14.27;52.71;101024.66;6045074;22;97634;-43
2023/12/28 10:02:03;;;;;;;1.67;0.70;;;14.40;99.90;;;14.38;55.13;101021.53;6054576;22;97004;-43
2023/12/28 10:04:29;;;;;;;6.20;0.77;;;14.40;99.90;;;14.33;52.22;101023.53;5958261;22;99052;-42
2023/12/28 10:06:55;;;;;;;1.70;0.40;;;14.40;99.90;;;14.42;53.15;101018.66;5998821;22;114669;-41
2023/12/28 10:09:21;;;;;;;2.80;0.93;;;14.50;99.90;;;14.29;52.50;101009.53;5991165;22;106890;-41